sensor_id;sensor_type;location;lat;lon;timestamp;temperature;humidity
2459;DHT22;1241;50.920;6.936;2022-11-20T00:00:48;4.70;99.90
2459;DHT22;1241;50.920;6.936;2022-11-20T00:03:15;4.70;99.90
2459;DHT22;1241;50.920;6.936;2022-11-20T00:05:40;4.70;99.90
2459;DHT22;1241;50.920;6.936;2022-11-20T00:08:06;4.70;99.90
2459;DHT22;1241;50.920;6.936;2022-11-20T00:10:32;4.70;99.90
2459;DHT22;1241;50.920;6.936;2022-11-20T00:12:58;4.70;99.90
2459;DHT22;1241;50.920;6.936;2022-11-20T00:15:24;4.70;99.90
2459;DHT22;1241;50.920;6.936;2022-11-20T00:17:50;4.70;99.90
2459;DHT22;1241;50.920;6.936;2022-11-20T00:20:15;4.70;99.90
2459;DHT22;1241;50.920;6.936;2022-11-20T00:22:41;4.60;99.90
2459;DHT22;1241;50.920;6.936;2022-11-20T00:25:07;4.50;99.90
2459;DHT22;1241;50.920;6.936;2022-11-20T00:27:33;4.40;99.90
2459;DHT22;1241;50.920;6.936;2022-11-20T00:29:58;4.40;99.90
2459;DHT22;1241;50.920;6.936;2022-11-20T00:32:24;4.50;99.90
2459;DHT22;1241;50.920;6.936;2022-11-20T00:34:50;4.50;99.90
2459;DHT22;1241;50.920;6.936;2022-11-20T00:37:16;4.50;99.90
2459;DHT22;1241;50.920;6.936;2022-11-20T00:39:41;4.50;99.90
2459;DHT22;1241;50.920;6.936;2022-11-20T00:42:07;4.50;99.90
2459;DHT22;1241;50.920;6.936;2022-11-20T00:44:33;4.50;99.90
2459;DHT22;1241;50.920;6.936;2022-11-20T00:46:58;4.40;99.90
2459;DHT22;1241;50.920;6.936;2022-11-20T00:49:24;4.40;99.90
2459;DHT22;1241;50.920;6.936;2022-11-20T00:51:50;4.40;99.90
2459;DHT22;1241;50.920;6.936;2022-11-20T00:54:15;4.40;99.90
2459;DHT22;1241;50.920;6.936;2022-11-20T00:56:41;4.30;99.90
2459;DHT22;1241;50.920;6.936;2022-11-20T00:59:09;4.40;99.90
2459;DHT22;1241;50.920;6.936;2022-11-20T01:01:36;4.40;99.90
2459;DHT22;1241;50.920;6.936;2022-11-20T01:04:02;4.40;99.90
2459;DHT22;1241;50.920;6.936;2022-11-20T01:06:30;4.40;99.90
2459;DHT22;1241;50.920;6.936;2022-11-20T01:08:58;4.40;99.90
2459;DHT22;1241;50.920;6.936;2022-11-20T01:11:35;4.40;99.90
2459;DHT22;1241;50.920;6.936;2022-11-20T01:14:04;4.40;99.90
2459;DHT22;1241;50.920;6.936;2022-11-20T01:16:33;4.50;99.90
2459;DHT22;1241;50.920;6.936;2022-11-20T01:19:00;4.60;99.90
2459;DHT22;1241;50.920;6.936;2022-11-20T01:21:28;4.60;99.90
2459;DHT22;1241;50.920;6.936;2022-11-20T01:23:55;4.60;99.90
2459;DHT22;1241;50.920;6.936;2022-11-20T01:26:27;4.60;99.90
2459;DHT22;1241;50.920;6.936;2022-11-20T01:28:54;4.70;99.90
2459;DHT22;1241;50.920;6.936;2022-11-20T01:31:25;4.80;99.90
2459;DHT22;1241;50.920;6.936;2022-11-20T01:33:53;4.70;99.90
2459;DHT22;1241;50.920;6.936;2022-11-20T01:36:21;4.80;99.90
2459;DHT22;1241;50.920;6.936;2022-11-20T01:38:47;4.80;99.90
2459;DHT22;1241;50.920;6.936;2022-11-20T01:41:14;4.90;99.90
2459;DHT22;1241;50.920;6.936;2022-11-20T01:44:01;4.90;99.90
2459;DHT22;1241;50.920;6.936;2022-11-20T01:46:27;5.00;99.90
2459;DHT22;1241;50.920;6.936;2022-11-20T01:51:45;5.10;99.90
2459;DHT22;1241;50.920;6.936;2022-11-20T01:54:19;5.10;99.90
2459;DHT22;1241;50.920;6.936;2022-11-20T01:56:48;5.00;99.90
2459;DHT22;1241;50.920;6.936;2022-11-20T01:59:18;5.00;99.90
2459;DHT22;1241;50.920;6.936;2022-11-20T02:01:44;5.00;99.90
2459;DHT22;1241;50.920;6.936;2022-11-20T02:04:11;4.90;99.90
2459;DHT22;1241;50.920;6.936;2022-11-20T02:06:46;4.90;99.90
2459;DHT22;1241;50.920;6.936;2022-11-20T02:09:14;4.90;99.90
2459;DHT22;1241;50.920;6.936;2022-11-20T02:11:40;4.80;99.90
2459;DHT22;1241;50.920;6.936;2022-11-20T02:14:06;4.60;99.90
2459;DHT22;1241;50.920;6.936;2022-11-20T02:16:39;4.50;99.90
2459;DHT22;1241;50.920;6.936;2022-11-20T02:19:09;4.50;99.90
2459;DHT22;1241;50.920;6.936;2022-11-20T02:22:01;4.40;99.90
2459;DHT22;1241;50.920;6.936;2022-11-20T02:24:28;4.50;99.90
2459;DHT22;1241;50.920;6.936;2022-11-20T02:27:06;4.50;99.90
2459;DHT22;1241;50.920;6.936;2022-11-20T02:29:56;4.50;99.90
2459;DHT22;1241;50.920;6.936;2022-11-20T02:34:48;4.50;99.90
2459;DHT22;1241;50.920;6.936;2022-11-20T02:37:15;4.60;99.90
2459;DHT22;1241;50.920;6.936;2022-11-20T02:39:41;4.60;99.90
2459;DHT22;1241;50.920;6.936;2022-11-20T02:42:07;4.70;99.90
2459;DHT22;1241;50.920;6.936;2022-11-20T02:44:33;4.80;99.90
2459;DHT22;1241;50.920;6.936;2022-11-20T02:46:59;4.80;99.90
2459;DHT22;1241;50.920;6.936;2022-11-20T02:49:25;4.80;99.90
2459;DHT22;1241;50.920;6.936;2022-11-20T02:51:51;4.80;99.90
2459;DHT22;1241;50.920;6.936;2022-11-20T02:54:17;4.80;99.90
2459;DHT22;1241;50.920;6.936;2022-11-20T02:56:43;4.80;99.90
2459;DHT22;1241;50.920;6.936;2022-11-20T02:59:09;4.80;99.90
2459;DHT22;1241;50.920;6.936;2022-11-20T03:01:35;4.90;99.90
2459;DHT22;1241;50.920;6.936;2022-11-20T03:04:01;5.00;99.90
2459;DHT22;1241;50.920;6.936;2022-11-20T03:06:27;5.20;99.90
2459;DHT22;1241;50.920;6.936;2022-11-20T03:08:53;5.30;99.90
2459;DHT22;1241;50.920;6.936;2022-11-20T03:11:19;5.30;99.90
2459;DHT22;1241;50.920;6.936;2022-11-20T03:13:46;5.20;99.90
2459;DHT22;1241;50.920;6.936;2022-11-20T03:16:14;5.20;99.90
2459;DHT22;1241;50.920;6.936;2022-11-20T03:18:41;5.30;99.90
2459;DHT22;1241;50.920;6.936;2022-11-20T03:21:08;5.40;99.90
2459;DHT22;1241;50.920;6.936;2022-11-20T03:23:34;5.50;99.90
2459;DHT22;1241;50.920;6.936;2022-11-20T03:26:23;5.50;99.90
2459;DHT22;1241;50.920;6.936;2022-11-20T03:28:55;5.60;99.90
2459;DHT22;1241;50.920;6.936;2022-11-20T03:31:23;5.60;99.90
2459;DHT22;1241;50.920;6.936;2022-11-20T03:33:49;5.50;99.90
2459;DHT22;1241;50.920;6.936;2022-11-20T03:36:17;5.50;99.90
2459;DHT22;1241;50.920;6.936;2022-11-20T03:38:43;5.50;99.90
2459;DHT22;1241;50.920;6.936;2022-11-20T03:41:26;5.50;99.90
2459;DHT22;1241;50.920;6.936;2022-11-20T03:44:00;5.50;99.90
2459;DHT22;1241;50.920;6.936;2022-11-20T03:46:27;5.40;99.90
2459;DHT22;1241;50.920;6.936;2022-11-20T03:48:53;5.40;99.90
2459;DHT22;1241;50.920;6.936;2022-11-20T03:51:21;5.40;99.90
2459;DHT22;1241;50.920;6.936;2022-11-20T03:53:49;5.30;99.90
2459;DHT22;1241;50.920;6.936;2022-11-20T03:56:17;5.20;99.90
2459;DHT22;1241;50.920;6.936;2022-11-20T03:58:43;5.20;99.90
2459;DHT22;1241;50.920;6.936;2022-11-20T04:01:11;5.20;99.90
2459;DHT22;1241;50.920;6.936;2022-11-20T04:03:38;5.20;99.90
2459;DHT22;1241;50.920;6.936;2022-11-20T04:06:21;5.20;99.90
2459;DHT22;1241;50.920;6.936;2022-11-20T04:08:47;5.20;99.90
2459;DHT22;1241;50.920;6.936;2022-11-20T04:11:22;5.20;99.90
2459;DHT22;1241;50.920;6.936;2022-11-20T04:13:51;5.20;99.90
2459;DHT22;1241;50.920;6.936;2022-11-20T04:16:17;5.20;99.90
2459;DHT22;1241;50.920;6.936;2022-11-20T04:18:44;5.20;99.90
2459;DHT22;1241;50.920;6.936;2022-11-20T04:21:10;5.20;99.90
2459;DHT22;1241;50.920;6.936;2022-11-20T04:23:36;5.00;99.90
2459;DHT22;1241;50.920;6.936;2022-11-20T04:26:10;4.90;99.90
2459;DHT22;1241;50.920;6.936;2022-11-20T04:28:37;4.80;99.90
2459;DHT22;1241;50.920;6.936;2022-11-20T04:33:33;4.40;99.90
2459;DHT22;1241;50.920;6.936;2022-11-20T04:36:07;4.50;99.90
2459;DHT22;1241;50.920;6.936;2022-11-20T04:38:35;4.50;99.90
2459;DHT22;1241;50.920;6.936;2022-11-20T04:41:03;4.50;99.90
2459;DHT22;1241;50.920;6.936;2022-11-20T04:43:30;4.50;99.90
2459;DHT22;1241;50.920;6.936;2022-11-20T04:45:56;4.60;99.90
2459;DHT22;1241;50.920;6.936;2022-11-20T04:48:23;4.60;99.90
2459;DHT22;1241;50.920;6.936;2022-11-20T04:50:50;4.60;99.90
2459;DHT22;1241;50.920;6.936;2022-11-20T04:53:16;4.70;99.90
2459;DHT22;1241;50.920;6.936;2022-11-20T04:55:42;4.70;99.90
2459;DHT22;1241;50.920;6.936;2022-11-20T04:58:07;4.70;99.90
2459;DHT22;1241;50.920;6.936;2022-11-20T05:00:33;4.80;99.90
2459;DHT22;1241;50.920;6.936;2022-11-20T05:02:59;4.90;99.90
2459;DHT22;1241;50.920;6.936;2022-11-20T05:05:25;5.00;99.90
2459;DHT22;1241;50.920;6.936;2022-11-20T05:07:50;5.10;99.90
2459;DHT22;1241;50.920;6.936;2022-11-20T05:10:16;5.20;99.90
2459;DHT22;1241;50.920;6.936;2022-11-20T05:12:42;5.30;99.90
2459;DHT22;1241;50.920;6.936;2022-11-20T05:15:08;5.40;99.90
2459;DHT22;1241;50.920;6.936;2022-11-20T05:17:34;5.30;99.90
2459;DHT22;1241;50.920;6.936;2022-11-20T05:19:59;5.30;99.90
2459;DHT22;1241;50.920;6.936;2022-11-20T05:22:25;5.30;99.90
2459;DHT22;1241;50.920;6.936;2022-11-20T05:24:51;5.30;99.90
2459;DHT22;1241;50.920;6.936;2022-11-20T05:27:16;5.40;99.90
2459;DHT22;1241;50.920;6.936;2022-11-20T05:29:42;5.40;99.90
2459;DHT22;1241;50.920;6.936;2022-11-20T05:32:08;5.40;99.90
2459;DHT22;1241;50.920;6.936;2022-11-20T05:34:35;5.30;99.90
2459;DHT22;1241;50.920;6.936;2022-11-20T05:37:02;5.30;99.90
2459;DHT22;1241;50.920;6.936;2022-11-20T05:39:28;5.20;99.90
2459;DHT22;1241;50.920;6.936;2022-11-20T05:41:54;5.00;99.90
2459;DHT22;1241;50.920;6.936;2022-11-20T05:44:38;5.00;99.90
2459;DHT22;1241;50.920;6.936;2022-11-20T05:47:05;5.10;99.90
2459;DHT22;1241;50.920;6.936;2022-11-20T05:49:31;5.20;99.90
2459;DHT22;1241;50.920;6.936;2022-11-20T05:51:56;5.20;99.90
2459;DHT22;1241;50.920;6.936;2022-11-20T05:54:22;5.20;99.90
2459;DHT22;1241;50.920;6.936;2022-11-20T05:56:48;5.30;99.90
2459;DHT22;1241;50.920;6.936;2022-11-20T05:59:13;5.30;99.90
2459;DHT22;1241;50.920;6.936;2022-11-20T06:01:39;5.30;99.90
2459;DHT22;1241;50.920;6.936;2022-11-20T06:04:05;5.30;99.90
2459;DHT22;1241;50.920;6.936;2022-11-20T06:06:30;5.20;99.90
2459;DHT22;1241;50.920;6.936;2022-11-20T06:08:56;5.10;99.90
2459;DHT22;1241;50.920;6.936;2022-11-20T06:11:24;5.00;99.90
2459;DHT22;1241;50.920;6.936;2022-11-20T06:13:50;4.90;99.90
2459;DHT22;1241;50.920;6.936;2022-11-20T06:16:18;4.80;99.90
2459;DHT22;1241;50.920;6.936;2022-11-20T06:18:45;4.80;99.90
2459;DHT22;1241;50.920;6.936;2022-11-20T06:21:13;4.70;99.90
2459;DHT22;1241;50.920;6.936;2022-11-20T06:23:39;4.70;99.90
2459;DHT22;1241;50.920;6.936;2022-11-20T06:26:11;4.70;99.90
2459;DHT22;1241;50.920;6.936;2022-11-20T06:28:37;4.70;99.90
2459;DHT22;1241;50.920;6.936;2022-11-20T06:31:04;4.80;99.90
2459;DHT22;1241;50.920;6.936;2022-11-20T06:33:30;4.80;99.90
2459;DHT22;1241;50.920;6.936;2022-11-20T06:35:59;4.80;99.90
2459;DHT22;1241;50.920;6.936;2022-11-20T06:38:26;4.80;99.90
2459;DHT22;1241;50.920;6.936;2022-11-20T06:40:52;4.90;99.90
2459;DHT22;1241;50.920;6.936;2022-11-20T06:43:18;4.90;99.90
2459;DHT22;1241;50.920;6.936;2022-11-20T06:45:44;5.00;99.90
2459;DHT22;1241;50.920;6.936;2022-11-20T06:48:10;5.00;99.90
2459;DHT22;1241;50.920;6.936;2022-11-20T06:50:38;5.10;99.90
2459;DHT22;1241;50.920;6.936;2022-11-20T06:53:04;5.10;99.90
2459;DHT22;1241;50.920;6.936;2022-11-20T06:55:31;5.20;99.90
2459;DHT22;1241;50.920;6.936;2022-11-20T06:57:57;5.20;99.90
2459;DHT22;1241;50.920;6.936;2022-11-20T07:00:23;5.20;99.90
2459;DHT22;1241;50.920;6.936;2022-11-20T07:02:49;5.20;99.90
2459;DHT22;1241;50.920;6.936;2022-11-20T07:05:15;5.10;99.90
2459;DHT22;1241;50.920;6.936;2022-11-20T07:07:41;5.10;99.90
2459;DHT22;1241;50.920;6.936;2022-11-20T07:10:08;5.10;99.90
2459;DHT22;1241;50.920;6.936;2022-11-20T07:12:33;5.20;99.90
2459;DHT22;1241;50.920;6.936;2022-11-20T07:14:59;5.30;99.90
2459;DHT22;1241;50.920;6.936;2022-11-20T07:17:25;5.40;99.90
2459;DHT22;1241;50.920;6.936;2022-11-20T07:19:51;5.50;99.90
2459;DHT22;1241;50.920;6.936;2022-11-20T07:22:16;5.70;99.90
2459;DHT22;1241;50.920;6.936;2022-11-20T07:24:42;5.70;99.90
2459;DHT22;1241;50.920;6.936;2022-11-20T07:27:07;5.80;99.90
2459;DHT22;1241;50.920;6.936;2022-11-20T07:29:33;5.90;99.90
2459;DHT22;1241;50.920;6.936;2022-11-20T07:31:59;5.90;99.90
2459;DHT22;1241;50.920;6.936;2022-11-20T07:34:24;5.90;99.90
2459;DHT22;1241;50.920;6.936;2022-11-20T07:36:50;5.80;99.90
2459;DHT22;1241;50.920;6.936;2022-11-20T07:39:16;5.70;99.90
2459;DHT22;1241;50.920;6.936;2022-11-20T07:41:41;5.80;99.90
2459;DHT22;1241;50.920;6.936;2022-11-20T07:44:07;5.80;99.90
2459;DHT22;1241;50.920;6.936;2022-11-20T07:46:33;5.90;99.90
2459;DHT22;1241;50.920;6.936;2022-11-20T07:48:58;5.90;99.90
2459;DHT22;1241;50.920;6.936;2022-11-20T07:51:24;5.90;99.90
2459;DHT22;1241;50.920;6.936;2022-11-20T07:53:52;6.00;99.90
2459;DHT22;1241;50.920;6.936;2022-11-20T07:56:18;6.00;99.90
2459;DHT22;1241;50.920;6.936;2022-11-20T07:58:43;6.00;99.90
2459;DHT22;1241;50.920;6.936;2022-11-20T08:01:09;6.00;99.90
2459;DHT22;1241;50.920;6.936;2022-11-20T08:03:35;6.00;99.90
2459;DHT22;1241;50.920;6.936;2022-11-20T08:06:03;6.00;99.90
2459;DHT22;1241;50.920;6.936;2022-11-20T08:08:29;6.10;99.90
2459;DHT22;1241;50.920;6.936;2022-11-20T08:10:57;6.10;99.90
2459;DHT22;1241;50.920;6.936;2022-11-20T08:13:43;6.20;99.90
2459;DHT22;1241;50.920;6.936;2022-11-20T08:16:28;6.30;99.90
2459;DHT22;1241;50.920;6.936;2022-11-20T08:18:54;6.40;99.90
2459;DHT22;1241;50.920;6.936;2022-11-20T08:21:20;6.50;99.90
2459;DHT22;1241;50.920;6.936;2022-11-20T08:23:45;6.60;99.90
2459;DHT22;1241;50.920;6.936;2022-11-20T08:26:11;6.70;99.90
2459;DHT22;1241;50.920;6.936;2022-11-20T08:28:37;6.70;99.90
2459;DHT22;1241;50.920;6.936;2022-11-20T08:31:03;6.70;99.90
2459;DHT22;1241;50.920;6.936;2022-11-20T08:33:29;6.70;99.90
2459;DHT22;1241;50.920;6.936;2022-11-20T08:36:03;6.80;99.90
2459;DHT22;1241;50.920;6.936;2022-11-20T08:38:29;6.70;99.90
2459;DHT22;1241;50.920;6.936;2022-11-20T08:40:59;6.70;99.90
2459;DHT22;1241;50.920;6.936;2022-11-20T08:43:44;6.80;99.90
2459;DHT22;1241;50.920;6.936;2022-11-20T08:46:10;6.90;99.90
2459;DHT22;1241;50.920;6.936;2022-11-20T08:48:36;6.90;99.90
2459;DHT22;1241;50.920;6.936;2022-11-20T08:51:01;7.00;99.90
2459;DHT22;1241;50.920;6.936;2022-11-20T08:53:28;7.00;99.90
2459;DHT22;1241;50.920;6.936;2022-11-20T08:55:53;7.00;99.90
2459;DHT22;1241;50.920;6.936;2022-11-20T08:58:19;7.00;99.90
2459;DHT22;1241;50.920;6.936;2022-11-20T09:00:45;7.00;99.90
2459;DHT22;1241;50.920;6.936;2022-11-20T09:03:11;7.00;99.90
2459;DHT22;1241;50.920;6.936;2022-11-20T09:05:39;7.10;99.90
2459;DHT22;1241;50.920;6.936;2022-11-20T09:08:04;7.20;99.90
2459;DHT22;1241;50.920;6.936;2022-11-20T09:10:30;7.20;99.90
2459;DHT22;1241;50.920;6.936;2022-11-20T09:12:56;7.30;99.90
2459;DHT22;1241;50.920;6.936;2022-11-20T09:15:23;7.20;99.90
2459;DHT22;1241;50.920;6.936;2022-11-20T09:20:19;7.00;99.90
2459;DHT22;1241;50.920;6.936;2022-11-20T09:22:45;7.00;99.90
2459;DHT22;1241;50.920;6.936;2022-11-20T09:25:11;6.90;99.90
2459;DHT22;1241;50.920;6.936;2022-11-20T09:27:37;6.60;99.90
2459;DHT22;1241;50.920;6.936;2022-11-20T09:30:03;6.70;99.90
2459;DHT22;1241;50.920;6.936;2022-11-20T09:32:29;6.80;99.90
2459;DHT22;1241;50.920;6.936;2022-11-20T09:34:55;7.00;99.90
2459;DHT22;1241;50.920;6.936;2022-11-20T09:37:20;7.10;99.90
2459;DHT22;1241;50.920;6.936;2022-11-20T09:39:46;7.10;99.90
2459;DHT22;1241;50.920;6.936;2022-11-20T09:55:34;7.90;99.90
2459;DHT22;1241;50.920;6.936;2022-11-20T09:58:01;8.00;99.90
2459;DHT22;1241;50.920;6.936;2022-11-20T10:00:28;8.10;99.90
2459;DHT22;1241;50.920;6.936;2022-11-20T10:03:14;8.10;99.90
2459;DHT22;1241;50.920;6.936;2022-11-20T10:05:55;8.20;99.90
2459;DHT22;1241;50.920;6.936;2022-11-20T10:10:56;8.40;99.90
2459;DHT22;1241;50.920;6.936;2022-11-20T10:21:47;8.30;99.90
2459;DHT22;1241;50.920;6.936;2022-11-20T10:24:32;8.30;99.90
2459;DHT22;1241;50.920;6.936;2022-11-20T10:29:42;7.90;99.90
2459;DHT22;1241;50.920;6.936;2022-11-20T10:32:18;7.90;99.90
2459;DHT22;1241;50.920;6.936;2022-11-20T10:34:59;7.90;99.90
2459;DHT22;1241;50.920;6.936;2022-11-20T10:37:27;7.70;99.90
2459;DHT22;1241;50.920;6.936;2022-11-20T10:40:32;7.50;99.90
2459;DHT22;1241;50.920;6.936;2022-11-20T10:43:15;7.40;99.90
2459;DHT22;1241;50.920;6.936;2022-11-20T10:48:31;7.50;99.90
2459;DHT22;1241;50.920;6.936;2022-11-20T10:51:15;7.50;99.90
2459;DHT22;1241;50.920;6.936;2022-11-20T10:57:17;7.40;99.90
2459;DHT22;1241;50.920;6.936;2022-11-20T11:02:39;7.20;99.90
2459;DHT22;1241;50.920;6.936;2022-11-20T11:05:42;7.10;99.90
2459;DHT22;1241;50.920;6.936;2022-11-20T11:08:15;7.10;99.90
2459;DHT22;1241;50.920;6.936;2022-11-20T11:10:57;7.20;99.90
2459;DHT22;1241;50.920;6.936;2022-11-20T11:13:28;7.10;99.90
2459;DHT22;1241;50.920;6.936;2022-11-20T11:15:55;7.00;99.90
2459;DHT22;1241;50.920;6.936;2022-11-20T11:18:30;7.00;99.90
2459;DHT22;1241;50.920;6.936;2022-11-20T11:21:02;7.10;99.90
2459;DHT22;1241;50.920;6.936;2022-11-20T11:26:05;7.20;99.90
2459;DHT22;1241;50.920;6.936;2022-11-20T11:28:32;7.30;99.90
2459;DHT22;1241;50.920;6.936;2022-11-20T11:30:58;7.50;99.90
2459;DHT22;1241;50.920;6.936;2022-11-20T11:33:28;7.50;99.90
2459;DHT22;1241;50.920;6.936;2022-11-20T11:35:58;7.50;99.90
2459;DHT22;1241;50.920;6.936;2022-11-20T11:38:41;7.50;99.90
2459;DHT22;1241;50.920;6.936;2022-11-20T11:41:22;7.50;99.90
2459;DHT22;1241;50.920;6.936;2022-11-20T11:43:54;7.70;99.90
2459;DHT22;1241;50.920;6.936;2022-11-20T11:46:44;7.60;99.90
2459;DHT22;1241;50.920;6.936;2022-11-20T11:49:18;7.50;99.90
2459;DHT22;1241;50.920;6.936;2022-11-20T11:54:27;7.40;99.90
2459;DHT22;1241;50.920;6.936;2022-11-20T11:56:54;7.40;99.90
2459;DHT22;1241;50.920;6.936;2022-11-20T11:59:27;7.20;99.90
2459;DHT22;1241;50.920;6.936;2022-11-20T12:02:01;7.20;99.90
2459;DHT22;1241;50.920;6.936;2022-11-20T12:04:44;7.30;99.90
2459;DHT22;1241;50.920;6.936;2022-11-20T12:07:19;7.30;99.90
2459;DHT22;1241;50.920;6.936;2022-11-20T12:09:52;7.30;99.90
2459;DHT22;1241;50.920;6.936;2022-11-20T12:12:35;7.20;99.90
2459;DHT22;1241;50.920;6.936;2022-11-20T12:15:02;7.20;99.90
2459;DHT22;1241;50.920;6.936;2022-11-20T12:17:29;7.20;99.90
2459;DHT22;1241;50.920;6.936;2022-11-20T12:19:55;7.10;99.90
2459;DHT22;1241;50.920;6.936;2022-11-20T12:22:41;7.20;99.90
2459;DHT22;1241;50.920;6.936;2022-11-20T12:25:24;7.20;99.90
2459;DHT22;1241;50.920;6.936;2022-11-20T12:30:52;7.30;99.90
2459;DHT22;1241;50.920;6.936;2022-11-20T12:33:49;7.40;99.90
2459;DHT22;1241;50.920;6.936;2022-11-20T12:39:01;7.20;99.90
2459;DHT22;1241;50.920;6.936;2022-11-20T12:42:00;7.20;99.90
2459;DHT22;1241;50.920;6.936;2022-11-20T12:48:03;7.40;99.90
2459;DHT22;1241;50.920;6.936;2022-11-20T12:53:48;7.50;99.90
2459;DHT22;1241;50.920;6.936;2022-11-20T13:01:25;7.80;99.90
2459;DHT22;1241;50.920;6.936;2022-11-20T13:07:05;8.00;99.90
2459;DHT22;1241;50.920;6.936;2022-11-20T13:09:33;8.00;99.90
2459;DHT22;1241;50.920;6.936;2022-11-20T13:12:24;7.90;99.90
2459;DHT22;1241;50.920;6.936;2022-11-20T13:14:58;7.90;99.90
2459;DHT22;1241;50.920;6.936;2022-11-20T13:17:32;7.90;99.90
2459;DHT22;1241;50.920;6.936;2022-11-20T13:19:59;8.00;99.90
2459;DHT22;1241;50.920;6.936;2022-11-20T13:22:31;8.10;99.90
2459;DHT22;1241;50.920;6.936;2022-11-20T13:25:22;8.10;99.90
2459;DHT22;1241;50.920;6.936;2022-11-20T13:27:48;8.00;99.90
2459;DHT22;1241;50.920;6.936;2022-11-20T13:30:18;8.00;99.90
2459;DHT22;1241;50.920;6.936;2022-11-20T13:33:21;8.00;99.90
2459;DHT22;1241;50.920;6.936;2022-11-20T13:36:05;8.00;99.90
2459;DHT22;1241;50.920;6.936;2022-11-20T13:38:46;8.00;99.90
2459;DHT22;1241;50.920;6.936;2022-11-20T13:41:23;8.00;99.90
2459;DHT22;1241;50.920;6.936;2022-11-20T13:44:22;8.10;99.90
2459;DHT22;1241;50.920;6.936;2022-11-20T13:46:49;8.20;99.90
2459;DHT22;1241;50.920;6.936;2022-11-20T13:49:29;8.10;99.90
2459;DHT22;1241;50.920;6.936;2022-11-20T13:54:52;7.80;99.90
2459;DHT22;1241;50.920;6.936;2022-11-20T13:58:23;7.80;99.90
2459;DHT22;1241;50.920;6.936;2022-11-20T14:00:25;7.80;99.90
2459;DHT22;1241;50.920;6.936;2022-11-20T14:05:35;7.70;99.90
2459;DHT22;1241;50.920;6.936;2022-11-20T14:08:03;7.70;99.90
2459;DHT22;1241;50.920;6.936;2022-11-20T14:10:31;7.70;99.90
2459;DHT22;1241;50.920;6.936;2022-11-20T14:12:56;7.70;99.90
2459;DHT22;1241;50.920;6.936;2022-11-20T14:15:33;7.70;99.90
2459;DHT22;1241;50.920;6.936;2022-11-20T14:18:10;7.70;99.90
2459;DHT22;1241;50.920;6.936;2022-11-20T14:20:37;7.70;99.90
2459;DHT22;1241;50.920;6.936;2022-11-20T14:23:04;7.60;99.90
2459;DHT22;1241;50.920;6.936;2022-11-20T14:25:31;7.60;99.90
2459;DHT22;1241;50.920;6.936;2022-11-20T14:27:59;7.60;99.90
2459;DHT22;1241;50.920;6.936;2022-11-20T14:30:38;7.50;99.90
2459;DHT22;1241;50.920;6.936;2022-11-20T14:33:05;7.60;99.90
2459;DHT22;1241;50.920;6.936;2022-11-20T14:35:35;7.60;99.90
2459;DHT22;1241;50.920;6.936;2022-11-20T14:38:02;7.60;99.90
2459;DHT22;1241;50.920;6.936;2022-11-20T14:40:33;7.60;99.90
2459;DHT22;1241;50.920;6.936;2022-11-20T14:46:02;7.70;99.90
2459;DHT22;1241;50.920;6.936;2022-11-20T14:51:05;7.70;99.90
2459;DHT22;1241;50.920;6.936;2022-11-20T14:53:30;7.70;99.90
2459;DHT22;1241;50.920;6.936;2022-11-20T14:56:00;7.70;99.90
2459;DHT22;1241;50.920;6.936;2022-11-20T14:58:29;7.60;99.90
2459;DHT22;1241;50.920;6.936;2022-11-20T15:00:57;7.60;99.90
2459;DHT22;1241;50.920;6.936;2022-11-20T15:03:23;7.60;99.90
2459;DHT22;1241;50.920;6.936;2022-11-20T15:05:55;7.70;99.90
2459;DHT22;1241;50.920;6.936;2022-11-20T15:08:21;7.70;99.90
2459;DHT22;1241;50.920;6.936;2022-11-20T15:10:48;7.70;99.90
2459;DHT22;1241;50.920;6.936;2022-11-20T15:13:34;7.50;99.90
2459;DHT22;1241;50.920;6.936;2022-11-20T15:16:02;7.50;99.90
2459;DHT22;1241;50.920;6.936;2022-11-20T15:18:36;7.70;99.90
2459;DHT22;1241;50.920;6.936;2022-11-20T15:21:08;7.70;99.90
2459;DHT22;1241;50.920;6.936;2022-11-20T15:23:35;7.70;99.90
2459;DHT22;1241;50.920;6.936;2022-11-20T15:26:01;7.80;99.90
2459;DHT22;1241;50.920;6.936;2022-11-20T15:28:40;7.80;99.90
2459;DHT22;1241;50.920;6.936;2022-11-20T15:31:06;7.80;99.90
2459;DHT22;1241;50.920;6.936;2022-11-20T15:33:33;7.80;99.90
2459;DHT22;1241;50.920;6.936;2022-11-20T15:35:59;7.80;99.90
2459;DHT22;1241;50.920;6.936;2022-11-20T15:38:25;7.80;99.90
2459;DHT22;1241;50.920;6.936;2022-11-20T15:40:51;7.80;99.90
2459;DHT22;1241;50.920;6.936;2022-11-20T15:43:17;7.90;99.90
2459;DHT22;1241;50.920;6.936;2022-11-20T15:45:45;7.90;99.90
2459;DHT22;1241;50.920;6.936;2022-11-20T15:48:24;7.80;99.90
2459;DHT22;1241;50.920;6.936;2022-11-20T15:53:25;7.80;99.90
2459;DHT22;1241;50.920;6.936;2022-11-20T15:55:51;7.80;99.90
2459;DHT22;1241;50.920;6.936;2022-11-20T15:58:16;7.70;99.90
2459;DHT22;1241;50.920;6.936;2022-11-20T16:00:42;8.00;99.90
2459;DHT22;1241;50.920;6.936;2022-11-20T16:03:12;7.80;99.90
2459;DHT22;1241;50.920;6.936;2022-11-20T16:05:38;7.80;99.90
2459;DHT22;1241;50.920;6.936;2022-11-20T16:08:04;7.80;99.90
2459;DHT22;1241;50.920;6.936;2022-11-20T16:10:30;7.80;99.90
2459;DHT22;1241;50.920;6.936;2022-11-20T16:12:56;7.80;99.90
2459;DHT22;1241;50.920;6.936;2022-11-20T16:15:40;7.80;99.90
2459;DHT22;1241;50.920;6.936;2022-11-20T16:18:14;7.80;99.90
2459;DHT22;1241;50.920;6.936;2022-11-20T16:20:41;7.80;99.90
2459;DHT22;1241;50.920;6.936;2022-11-20T16:23:07;7.80;99.90
2459;DHT22;1241;50.920;6.936;2022-11-20T16:25:33;7.80;99.90
2459;DHT22;1241;50.920;6.936;2022-11-20T16:27:58;7.80;99.90
2459;DHT22;1241;50.920;6.936;2022-11-20T16:30:24;7.90;99.90
2459;DHT22;1241;50.920;6.936;2022-11-20T16:32:50;7.90;99.90
2459;DHT22;1241;50.920;6.936;2022-11-20T16:35:16;8.00;99.90
2459;DHT22;1241;50.920;6.936;2022-11-20T16:37:41;8.00;99.90
2459;DHT22;1241;50.920;6.936;2022-11-20T16:40:09;8.10;99.90
2459;DHT22;1241;50.920;6.936;2022-11-20T16:42:36;8.10;99.90
2459;DHT22;1241;50.920;6.936;2022-11-20T16:45:03;8.00;99.90
2459;DHT22;1241;50.920;6.936;2022-11-20T16:47:35;8.00;99.90
2459;DHT22;1241;50.920;6.936;2022-11-20T16:50:03;8.00;99.90
2459;DHT22;1241;50.920;6.936;2022-11-20T16:52:29;7.90;99.90
2459;DHT22;1241;50.920;6.936;2022-11-20T16:54:55;7.90;99.90
2459;DHT22;1241;50.920;6.936;2022-11-20T16:57:21;7.90;99.90
2459;DHT22;1241;50.920;6.936;2022-11-20T16:59:47;7.80;99.90
2459;DHT22;1241;50.920;6.936;2022-11-20T17:02:13;8.00;99.90
2459;DHT22;1241;50.920;6.936;2022-11-20T17:04:39;8.00;99.90
2459;DHT22;1241;50.920;6.936;2022-11-20T17:07:06;7.90;99.90
2459;DHT22;1241;50.920;6.936;2022-11-20T17:09:32;7.80;99.90
2459;DHT22;1241;50.920;6.936;2022-11-20T17:11:58;7.80;99.90
2459;DHT22;1241;50.920;6.936;2022-11-20T17:14:24;7.70;99.90
2459;DHT22;1241;50.920;6.936;2022-11-20T17:16:50;7.70;99.90
2459;DHT22;1241;50.920;6.936;2022-11-20T17:19:16;7.50;99.90
2459;DHT22;1241;50.920;6.936;2022-11-20T17:21:42;7.60;99.90
2459;DHT22;1241;50.920;6.936;2022-11-20T17:24:11;7.70;99.90
2459;DHT22;1241;50.920;6.936;2022-11-20T17:26:39;7.70;99.90
2459;DHT22;1241;50.920;6.936;2022-11-20T17:29:07;7.60;99.90
2459;DHT22;1241;50.920;6.936;2022-11-20T17:31:35;7.50;99.90
2459;DHT22;1241;50.920;6.936;2022-11-20T17:34:03;7.40;99.90
2459;DHT22;1241;50.920;6.936;2022-11-20T17:36:30;7.40;99.90
2459;DHT22;1241;50.920;6.936;2022-11-20T17:38:56;7.40;99.90
2459;DHT22;1241;50.920;6.936;2022-11-20T17:41:25;7.50;99.90
2459;DHT22;1241;50.920;6.936;2022-11-20T17:43:55;7.50;99.90
2459;DHT22;1241;50.920;6.936;2022-11-20T17:46:24;7.30;99.90
2459;DHT22;1241;50.920;6.936;2022-11-20T17:48:50;7.30;99.90
2459;DHT22;1241;50.920;6.936;2022-11-20T17:51:21;7.30;99.90
2459;DHT22;1241;50.920;6.936;2022-11-20T17:53:49;7.30;99.90
2459;DHT22;1241;50.920;6.936;2022-11-20T17:56:16;7.40;99.90